createdAt,value
2022-09-21T00:01:08.876Z,98.70
2022-09-21T00:03:37.596Z,98.80
2022-09-21T00:06:08.943Z,98.70
2022-09-21T00:08:37.566Z,98.70
2022-09-21T00:11:06.075Z,98.60
2022-09-21T00:13:35.088Z,98.50
2022-09-21T00:16:06.296Z,98.40
2022-09-21T00:18:35.495Z,98.40
2022-09-21T00:21:08.674Z,98.50
2022-09-21T00:23:37.608Z,98.40
2022-09-21T00:26:07.551Z,98.30
2022-09-21T00:28:36.023Z,98.20
2022-09-21T00:31:05.343Z,98.20
2022-09-21T00:33:33.507Z,98.20
2022-09-21T00:36:05.645Z,98.30
2022-09-21T00:38:36.185Z,98.30
2022-09-21T00:41:05.263Z,98.20
2022-09-21T00:43:35.334Z,98.10
2022-09-21T00:46:07.741Z,98.10
2022-09-21T00:48:35.823Z,98.10
2022-09-21T00:51:07.624Z,98.00
2022-09-21T00:53:38.971Z,98.00
2022-09-21T00:56:10.445Z,98.00
2022-09-21T00:58:42.986Z,98.10
2022-09-21T01:01:12.997Z,98.10
2022-09-21T01:03:45.744Z,98.10
2022-09-21T01:06:14.135Z,98.10
2022-09-21T01:08:45.156Z,98.10
2022-09-21T01:11:30.504Z,98.20
2022-09-21T01:14:24.283Z,98.10
2022-09-21T01:17:02.440Z,98.10
2022-09-21T01:20:05.673Z,98.00
2022-09-21T01:22:47.189Z,97.90
2022-09-21T01:25:28.040Z,97.90
2022-09-21T01:28:09.633Z,97.90
2022-09-21T01:30:43.732Z,98.00
2022-09-21T01:33:18.830Z,98.10
2022-09-21T01:35:51.296Z,98.30
2022-09-21T01:38:24.012Z,98.00
2022-09-21T01:40:55.347Z,98.00
2022-09-21T01:43:27.282Z,98.00
2022-09-21T01:45:58.327Z,98.20
2022-09-21T01:48:27.163Z,98.20
2022-09-21T01:50:57.855Z,98.20
2022-09-21T01:53:32.827Z,98.10
2022-09-21T01:56:06.046Z,98.20
2022-09-21T01:58:39.657Z,98.20
2022-09-21T02:01:11.763Z,98.10
2022-09-21T02:03:44.300Z,98.10
2022-09-21T02:06:13.369Z,98.10
2022-09-21T02:08:41.640Z,98.20
2022-09-21T02:11:13.308Z,98.20
2022-09-21T02:13:45.821Z,98.10
2022-09-21T02:16:35.641Z,98.10
2022-09-21T02:19:13.461Z,98.00
2022-09-21T02:21:52.542Z,98.10
2022-09-21T02:24:28.572Z,98.20
2022-09-21T02:27:03.874Z,98.20
2022-09-21T02:29:40.540Z,98.00
2022-09-21T02:32:13.946Z,97.80
2022-09-21T02:34:46.425Z,97.80
2022-09-21T02:37:22.357Z,97.80
2022-09-21T02:39:59.432Z,97.80
2022-09-21T02:42:30.692Z,97.80
2022-09-21T02:45:04.303Z,97.90
2022-09-21T02:47:37.607Z,97.90
2022-09-21T02:50:10.496Z,97.80
2022-09-21T02:52:41.917Z,97.80
2022-09-21T02:55:11.715Z,97.50
2022-09-21T02:57:39.759Z,97.50
2022-09-21T03:00:09.126Z,97.50
2022-09-21T03:02:40.122Z,97.40
2022-09-21T03:05:09.429Z,97.50
2022-09-21T03:07:37.487Z,97.60
2022-09-21T03:10:08.230Z,97.50
2022-09-21T03:12:36.694Z,97.60
2022-09-21T03:15:05.965Z,97.70
2022-09-21T03:17:34.866Z,97.60
2022-09-21T03:20:04.940Z,97.90
2022-09-21T03:22:32.934Z,97.80
2022-09-21T03:25:00.943Z,97.80
2022-09-21T03:27:29.555Z,97.80
2022-09-21T03:30:01.345Z,97.80
2022-09-21T03:32:30.099Z,97.80
2022-09-21T03:34:58.115Z,97.70
2022-09-21T03:37:27.474Z,97.80
2022-09-21T03:39:55.502Z,97.60
2022-09-21T03:42:23.495Z,97.60
2022-09-21T03:44:51.569Z,97.70
2022-09-21T03:47:20.798Z,97.50
2022-09-21T03:49:48.859Z,97.50
2022-09-21T03:52:16.907Z,97.40
2022-09-21T03:54:46.738Z,97.50
2022-09-21T03:57:14.741Z,97.50
2022-09-21T03:59:43.033Z,97.50
2022-09-21T04:02:11.055Z,97.50
2022-09-21T04:04:39.117Z,97.40
2022-09-21T04:07:07.135Z,97.10
2022-09-21T04:09:35.455Z,97.20
2022-09-21T04:12:05.221Z,97.20
2022-09-21T04:14:33.635Z,97.10
2022-09-21T04:17:01.642Z,97.00
2022-09-21T04:19:29.642Z,97.10
2022-09-21T04:21:57.921Z,97.10
2022-09-21T04:24:26.777Z,96.90
2022-09-21T04:26:54.797Z,97.10
2022-09-21T04:29:24.157Z,96.90
2022-09-21T04:31:52.196Z,97.10
2022-09-21T04:34:20.339Z,97.00
2022-09-21T04:36:48.364Z,97.10
2022-09-21T04:39:16.370Z,97.10
2022-09-21T04:41:44.378Z,97.10
2022-09-21T04:44:12.424Z,97.10
2022-09-21T04:46:42.387Z,97.10
2022-09-21T04:49:10.702Z,97.10
2022-09-21T04:51:39.000Z,97.10
2022-09-21T04:54:07.076Z,97.10
2022-09-21T04:56:35.519Z,97.20
2022-09-21T04:59:03.528Z,97.00
2022-09-21T05:01:31.604Z,97.00
2022-09-21T05:04:02.436Z,96.90
2022-09-21T05:06:30.783Z,96.90
2022-09-21T05:09:16.487Z,96.90
2022-09-21T05:11:44.910Z,96.90
2022-09-21T05:14:14.128Z,97.10
2022-09-21T05:16:42.167Z,97.00
2022-09-21T05:19:11.570Z,97.10
2022-09-21T05:21:39.570Z,97.10
2022-09-21T05:24:07.899Z,97.20
2022-09-21T05:26:35.963Z,97.20
2022-09-21T05:29:04.849Z,97.30
2022-09-21T05:31:40.848Z,97.30
2022-09-21T05:34:22.269Z,97.20
2022-09-21T05:37:02.966Z,97.20
2022-09-21T05:39:31.525Z,97.10
2022-09-21T05:41:59.844Z,97.20
2022-09-21T05:44:28.651Z,97.30
2022-09-21T05:47:02.618Z,97.20
2022-09-21T05:49:46.232Z,97.40
2022-09-21T05:52:22.123Z,97.40
2022-09-21T05:55:03.471Z,97.50
2022-09-21T05:57:42.090Z,97.40
2022-09-21T06:00:16.788Z,97.40
2022-09-21T06:03:06.872Z,97.60
2022-09-21T06:05:36.763Z,97.50
2022-09-21T06:08:04.988Z,97.60
2022-09-21T06:10:35.875Z,97.60
2022-09-21T06:13:04.126Z,97.80
2022-09-21T06:15:32.135Z,97.90
2022-09-21T06:18:00.214Z,97.90
2022-09-21T06:20:28.243Z,98.00
2022-09-21T06:23:02.606Z,98.10
2022-09-21T06:25:30.796Z,98.10
2022-09-21T06:28:04.379Z,98.40
2022-09-21T06:30:33.300Z,98.40
2022-09-21T06:33:02.356Z,98.50
2022-09-21T06:35:31.885Z,98.70
2022-09-21T06:38:02.055Z,98.80
2022-09-21T06:40:31.174Z,98.90
2022-09-21T06:43:00.165Z,98.90
2022-09-21T06:45:28.466Z,99.00
2022-09-21T06:47:56.553Z,99.10
2022-09-21T06:50:25.043Z,99.30
2022-09-21T06:52:53.248Z,99.80
2022-09-21T06:55:22.643Z,99.70
2022-09-21T06:57:51.570Z,99.70
2022-09-21T07:00:19.784Z,99.90
2022-09-21T07:02:48.204Z,99.90
2022-09-21T07:05:16.741Z,99.90
2022-09-21T07:07:44.764Z,99.90
2022-09-21T07:10:17.161Z,99.90
2022-09-21T07:12:49.483Z,99.90
2022-09-21T07:15:17.624Z,99.90
2022-09-21T07:17:51.721Z,99.90
2022-09-21T07:20:20.431Z,99.90
2022-09-21T07:22:48.932Z,99.90
2022-09-21T07:25:17.695Z,99.90
2022-09-21T07:27:47.634Z,99.90
2022-09-21T07:30:17.240Z,99.90
2022-09-21T07:32:45.540Z,99.90
2022-09-21T07:35:13.566Z,99.90
2022-09-21T07:37:41.714Z,99.90
2022-09-21T07:40:11.388Z,99.90
2022-09-21T07:42:39.908Z,99.90
2022-09-21T07:45:09.510Z,99.90
2022-09-21T07:47:38.997Z,99.90
2022-09-21T07:50:07.961Z,99.90
2022-09-21T07:52:36.082Z,99.90
2022-09-21T07:55:04.679Z,99.90
2022-09-21T07:57:50.503Z,99.90
2022-09-21T08:00:18.723Z,99.90
2022-09-21T08:02:48.207Z,99.90
2022-09-21T08:05:16.752Z,99.90
2022-09-21T08:07:44.862Z,99.90
2022-09-21T08:10:13.056Z,99.70
2022-09-21T08:12:41.130Z,99.60
2022-09-21T08:15:30.619Z,99.80
2022-09-21T08:18:00.792Z,99.90
2022-09-21T08:20:29.145Z,99.80
2022-09-21T08:22:57.601Z,99.70
2022-09-21T08:25:25.734Z,99.80
2022-09-21T08:27:58.035Z,99.80
2022-09-21T08:30:27.931Z,99.70
2022-09-21T08:32:56.477Z,99.60
2022-09-21T08:35:25.844Z,99.60
2022-09-21T08:37:55.230Z,99.60
2022-09-21T08:40:23.811Z,99.60
2022-09-21T08:42:59.941Z,99.50
2022-09-21T08:45:34.420Z,99.50
2022-09-21T08:48:06.739Z,99.40
2022-09-21T08:50:42.037Z,99.40
2022-09-21T08:53:15.582Z,99.30
2022-09-21T08:55:43.670Z,99.40
2022-09-21T08:58:22.213Z,99.30
2022-09-21T09:01:01.337Z,99.20
2022-09-21T09:03:54.678Z,99.10
2022-09-21T09:06:32.722Z,98.80
2022-09-21T09:09:23.047Z,98.80
2022-09-21T09:12:02.359Z,98.30
2022-09-21T09:14:51.275Z,98.50
2022-09-21T09:17:28.213Z,98.40
2022-09-21T09:20:01.446Z,98.00
2022-09-21T09:22:35.458Z,97.80
2022-09-21T09:25:06.992Z,97.80
2022-09-21T09:27:38.855Z,98.20
2022-09-21T09:30:15.806Z,98.10
2022-09-21T09:32:53.245Z,98.20
2022-09-21T09:35:27.741Z,98.20
2022-09-21T09:38:00.984Z,98.20
2022-09-21T09:40:45.857Z,98.20
2022-09-21T09:43:23.758Z,98.20
2022-09-21T09:45:59.887Z,98.00
2022-09-21T09:48:43.686Z,97.90
2022-09-21T09:51:13.607Z,98.10
2022-09-21T09:53:42.984Z,98.10
2022-09-21T09:56:14.727Z,98.20
2022-09-21T09:58:49.582Z,98.20
2022-09-21T10:01:39.888Z,98.00
2022-09-21T10:04:10.786Z,98.00
2022-09-21T10:06:43.723Z,98.10
2022-09-21T10:09:24.918Z,97.90
2022-09-21T10:11:53.743Z,97.90
2022-09-21T10:14:24.927Z,97.80
2022-09-21T10:16:54.290Z,97.90
2022-09-21T10:19:24.451Z,98.20
2022-09-21T10:21:58.034Z,98.10
2022-09-21T10:24:31.121Z,97.90
2022-09-21T10:27:06.290Z,97.60
2022-09-21T10:29:42.100Z,97.90
2022-09-21T10:32:26.393Z,97.70
2022-09-21T10:35:15.961Z,97.60
2022-09-21T10:37:46.397Z,97.60
2022-09-21T10:40:27.284Z,97.70
2022-09-21T10:42:58.523Z,97.60
2022-09-21T10:45:28.800Z,97.60
2022-09-21T10:47:58.957Z,97.50
2022-09-21T10:50:29.779Z,97.50
2022-09-21T10:53:01.706Z,97.30
2022-09-21T10:55:32.897Z,97.10
2022-09-21T10:58:01.592Z,97.00
2022-09-21T11:00:41.281Z,96.80
2022-09-21T11:03:41.633Z,96.80
2022-09-21T11:06:17.141Z,96.90
2022-09-21T11:08:51.646Z,97.00
2022-09-21T11:11:36.752Z,96.90
2022-09-21T11:14:15.491Z,96.90
2022-09-21T11:16:49.682Z,96.80
2022-09-21T11:19:26.253Z,96.70
2022-09-21T11:22:01.633Z,96.40
2022-09-21T11:24:43.403Z,96.10
2022-09-21T11:27:16.708Z,95.80
2022-09-21T11:29:52.844Z,95.90
2022-09-21T11:32:33.644Z,95.80
2022-09-21T11:35:19.537Z,95.80
2022-09-21T11:37:56.674Z,95.70
2022-09-21T11:40:40.412Z,95.70
2022-09-21T11:43:29.138Z,95.60
2022-09-21T11:46:06.796Z,95.40
2022-09-21T11:48:53.245Z,95.70
2022-09-21T11:51:38.612Z,95.20
2022-09-21T11:54:39.092Z,95.00
2022-09-21T11:57:16.922Z,95.20
2022-09-21T12:00:00.312Z,95.00
2022-09-21T12:02:46.290Z,94.90
2022-09-21T12:05:22.942Z,94.70
2022-09-21T12:08:11.472Z,94.50
2022-09-21T12:10:49.784Z,94.50
2022-09-21T12:13:28.628Z,94.50
2022-09-21T12:16:05.714Z,94.50
2022-09-21T12:18:45.335Z,94.30
2022-09-21T12:21:17.752Z,94.30
2022-09-21T12:23:50.000Z,94.20
2022-09-21T12:26:21.872Z,94.10
2022-09-21T12:28:53.550Z,93.90
2022-09-21T12:31:26.591Z,94.00
2022-09-21T12:33:59.023Z,94.30
2022-09-21T12:36:32.359Z,94.10
2022-09-21T12:39:07.462Z,94.30
2022-09-21T12:41:43.660Z,94.30
2022-09-21T12:44:20.664Z,94.20
2022-09-21T12:46:56.321Z,94.00
2022-09-21T12:49:29.796Z,93.90
2022-09-21T12:52:01.660Z,93.60
2022-09-21T12:54:37.879Z,93.40
2022-09-21T12:57:38.214Z,93.70
2022-09-21T13:00:07.169Z,94.40
2022-09-21T13:05:24.980Z,93.60
2022-09-21T13:08:04.759Z,93.50
2022-09-21T13:10:42.283Z,93.40
2022-09-21T13:13:23.247Z,93.20
2022-09-21T13:15:52.150Z,92.90
2022-09-21T13:18:25.792Z,92.80
2022-09-21T13:20:55.598Z,92.50
2022-09-21T13:23:27.567Z,92.30
2022-09-21T13:26:02.823Z,92.30
2022-09-21T13:29:01.098Z,92.10
2022-09-21T13:31:57.640Z,92.40
2022-09-21T13:34:35.501Z,92.20
2022-09-21T13:37:28.384Z,92.10
2022-09-21T13:40:38.945Z,92.00
2022-09-21T13:43:58.545Z,91.90
2022-09-21T13:47:02.780Z,91.00
2022-09-21T13:49:58.368Z,91.40
2022-09-21T13:52:39.366Z,91.60
2022-09-21T13:55:25.287Z,91.60
2022-09-21T13:57:56.697Z,91.40
2022-09-21T14:00:41.143Z,91.30
2022-09-21T14:03:23.052Z,91.40
2022-09-21T14:05:54.507Z,91.40
2022-09-21T14:08:27.981Z,91.30
2022-09-21T14:10:59.877Z,91.30
2022-09-21T14:13:33.708Z,91.30
2022-09-21T14:16:45.079Z,91.50
2022-09-21T14:20:07.958Z,91.70
2022-09-21T14:22:39.679Z,92.10
2022-09-21T14:25:32.104Z,91.80
2022-09-21T14:28:05.931Z,91.70
2022-09-21T14:30:36.771Z,92.00
2022-09-21T14:33:35.287Z,91.70
2022-09-21T14:36:09.532Z,91.70
2022-09-21T14:38:51.571Z,91.40
2022-09-21T14:41:23.900Z,91.70
2022-09-21T14:43:57.219Z,91.70
2022-09-21T14:46:49.429Z,91.40
2022-09-21T14:49:38.609Z,91.10
2022-09-21T14:52:22.470Z,91.10
2022-09-21T14:55:10.402Z,91.00
2022-09-21T14:58:08.454Z,91.00
2022-09-21T15:00:42.796Z,90.90
2022-09-21T15:03:43.198Z,90.80
2022-09-21T15:06:44.689Z,90.80
2022-09-21T15:09:49.096Z,90.80
2022-09-21T15:12:22.327Z,90.60
2022-09-21T15:15:01.393Z,90.70
2022-09-21T15:17:31.314Z,90.70
2022-09-21T15:20:00.769Z,90.70
2022-09-21T15:22:29.848Z,90.70
2022-09-21T15:25:02.747Z,90.70
2022-09-21T15:27:33.982Z,90.70
2022-09-21T15:30:05.404Z,91.00
2022-09-21T15:32:38.838Z,91.00
2022-09-21T15:35:17.183Z,91.10
2022-09-21T15:37:46.679Z,91.30
2022-09-21T15:40:21.998Z,91.40
2022-09-21T15:43:04.372Z,91.30
2022-09-21T15:45:37.191Z,91.50
2022-09-21T15:48:10.931Z,91.20
2022-09-21T15:50:39.381Z,91.50
2022-09-21T15:53:15.824Z,91.40
2022-09-21T15:55:47.983Z,91.30
2022-09-21T15:58:35.006Z,91.70
2022-09-21T16:01:05.375Z,91.60
2022-09-21T16:03:33.611Z,91.70
2022-09-21T16:06:22.960Z,91.70
2022-09-21T16:08:51.484Z,91.60
2022-09-21T16:11:25.034Z,91.60
2022-09-21T16:14:21.163Z,91.70
2022-09-21T16:17:24.210Z,91.80
2022-09-21T16:20:23.308Z,91.80
2022-09-21T16:22:54.754Z,91.90
2022-09-21T16:25:34.563Z,91.60
2022-09-21T16:28:04.657Z,91.60
2022-09-21T16:30:42.294Z,91.70
2022-09-21T16:33:40.888Z,91.70
2022-09-21T16:36:42.474Z,91.80
2022-09-21T16:39:15.542Z,91.80
2022-09-21T16:41:48.313Z,92.10
2022-09-21T16:44:20.776Z,92.00
2022-09-21T16:46:54.712Z,92.00
2022-09-21T16:49:28.017Z,92.30
2022-09-21T16:51:59.268Z,92.20
2022-09-21T16:54:28.471Z,92.10
2022-09-21T16:56:59.371Z,92.20
2022-09-21T16:59:27.889Z,92.40
2022-09-21T17:01:59.040Z,92.60
2022-09-21T17:04:28.737Z,92.70
2022-09-21T17:06:57.266Z,92.60
2022-09-21T17:09:29.812Z,92.70
2022-09-21T17:12:00.125Z,93.00
2022-09-21T17:14:29.809Z,93.40
2022-09-21T17:17:00.650Z,93.30
2022-09-21T17:19:28.647Z,93.40
2022-09-21T17:21:56.856Z,93.30
2022-09-21T17:24:48.830Z,93.40
2022-09-21T17:27:15.128Z,93.80
2022-09-21T17:29:47.975Z,93.90
2022-09-21T17:32:20.398Z,94.00
2022-09-21T17:34:53.156Z,94.20
2022-09-21T17:37:21.775Z,94.20
2022-09-21T17:39:50.076Z,94.20
2022-09-21T17:42:21.069Z,94.30
2022-09-21T17:45:13.390Z,94.50
2022-09-21T17:47:43.107Z,94.60
2022-09-21T17:50:22.911Z,94.50
2022-09-21T17:53:08.877Z,94.60
2022-09-21T17:55:37.304Z,94.60
2022-09-21T17:58:16.468Z,94.70
2022-09-21T18:00:53.020Z,94.80
2022-09-21T18:03:24.805Z,94.70
2022-09-21T18:05:59.276Z,94.70
2022-09-21T18:08:27.898Z,94.70
2022-09-21T18:11:13.501Z,94.60
2022-09-21T18:13:52.083Z,94.70
2022-09-21T18:16:28.001Z,94.70
2022-09-21T18:19:04.890Z,94.70
2022-09-21T18:21:40.728Z,94.70
2022-09-21T18:24:25.446Z,94.70
2022-09-21T18:26:57.891Z,94.80
2022-09-21T18:29:40.773Z,94.90
2022-09-21T18:32:39.560Z,94.90
2022-09-21T18:35:24.627Z,94.90
2022-09-21T18:38:03.355Z,94.80
2022-09-21T18:40:37.820Z,94.70
2022-09-21T18:43:23.026Z,94.60
2022-09-21T18:45:56.456Z,94.50
2022-09-21T18:48:36.750Z,94.50
2022-09-21T18:51:17.853Z,94.50
2022-09-21T18:53:54.109Z,94.50
2022-09-21T18:56:23.593Z,94.60
2022-09-21T18:58:53.414Z,94.70
2022-09-21T19:01:23.680Z,94.70
2022-09-21T19:03:52.446Z,94.70
2022-09-21T19:06:38.130Z,94.80
2022-09-21T19:09:21.079Z,94.90
2022-09-21T19:11:56.143Z,94.80
2022-09-21T19:14:33.901Z,94.90
2022-09-21T19:17:14.844Z,95.00
2022-09-21T19:19:58.982Z,95.10
2022-09-21T19:22:35.820Z,94.90
2022-09-21T19:25:08.748Z,95.00
2022-09-21T19:27:40.007Z,95.00
2022-09-21T19:30:11.923Z,95.10
2022-09-21T19:32:44.806Z,95.20
2022-09-21T19:35:20.306Z,95.20
2022-09-21T19:37:52.101Z,95.30
2022-09-21T19:40:22.912Z,95.40
2022-09-21T19:43:04.561Z,95.10
2022-09-21T19:45:42.158Z,95.40
2022-09-21T19:48:14.631Z,95.20
2022-09-21T19:50:47.033Z,95.30
2022-09-21T19:53:34.845Z,95.30
2022-09-21T19:56:21.163Z,95.30
2022-09-21T19:59:07.193Z,95.30
2022-09-21T20:01:42.516Z,95.40
2022-09-21T20:04:14.949Z,95.40
2022-09-21T20:06:46.572Z,95.30
2022-09-21T20:09:20.145Z,95.40
2022-09-21T20:11:54.549Z,95.50
2022-09-21T20:14:32.667Z,95.50
2022-09-21T20:17:04.761Z,95.60
2022-09-21T20:19:43.923Z,95.60
2022-09-21T20:22:14.947Z,95.80
2022-09-21T20:24:54.121Z,95.70
2022-09-21T20:27:34.704Z,95.70
2022-09-21T20:30:02.842Z,95.70
2022-09-21T20:32:31.774Z,95.70
2022-09-21T20:34:59.780Z,95.70
2022-09-21T20:37:30.134Z,95.80
2022-09-21T20:39:59.460Z,95.80
2022-09-21T20:42:27.578Z,95.70
2022-09-21T20:44:55.604Z,95.70
2022-09-21T20:47:23.723Z,95.70
2022-09-21T20:49:51.779Z,95.60
2022-09-21T20:52:20.042Z,95.60
2022-09-21T20:54:49.559Z,95.60
2022-09-21T20:57:20.070Z,95.60
2022-09-21T20:59:48.104Z,95.50
2022-09-21T21:02:17.292Z,95.60
2022-09-21T21:04:45.343Z,95.60
2022-09-21T21:07:13.389Z,95.60
2022-09-21T21:09:41.402Z,95.50
2022-09-21T21:12:10.285Z,95.70
2022-09-21T21:14:39.666Z,95.60
2022-09-21T21:17:07.870Z,95.80
2022-09-21T21:19:36.119Z,95.70
2022-09-21T21:22:04.210Z,95.80
2022-09-21T21:24:41.019Z,95.80
2022-09-21T21:27:11.453Z,95.80
2022-09-21T21:29:40.823Z,95.60
2022-09-21T21:32:08.898Z,95.60
2022-09-21T21:34:36.963Z,95.60
2022-09-21T21:37:05.264Z,95.50
2022-09-21T21:39:33.760Z,95.50
2022-09-21T21:42:01.867Z,95.60
2022-09-21T21:44:31.082Z,95.70
2022-09-21T21:47:20.956Z,95.60
2022-09-21T21:49:48.439Z,95.60
2022-09-21T21:52:16.592Z,95.60
2022-09-21T21:54:44.592Z,95.60
2022-09-21T21:57:13.986Z,95.50
2022-09-21T21:59:43.766Z,95.50
2022-09-21T22:02:13.213Z,95.50
2022-09-21T22:04:42.121Z,95.50
2022-09-21T22:07:10.160Z,95.50
2022-09-21T22:09:38.582Z,95.50
2022-09-21T22:12:06.932Z,95.40
2022-09-21T22:14:34.983Z,95.40
2022-09-21T22:17:03.033Z,95.40
2022-09-21T22:19:32.928Z,95.40
2022-09-21T22:22:00.942Z,95.30
2022-09-21T22:24:29.597Z,95.40
2022-09-21T22:26:57.715Z,95.40
2022-09-21T22:29:25.758Z,95.40
2022-09-21T22:31:55.199Z,95.30
2022-09-21T22:34:23.377Z,95.30
2022-09-21T22:36:53.784Z,95.30
2022-09-21T22:39:21.828Z,95.30
2022-09-21T22:41:49.828Z,95.30
2022-09-21T22:44:17.850Z,95.30
2022-09-21T22:46:45.856Z,95.30
2022-09-21T22:49:13.848Z,95.30
2022-09-21T22:51:41.852Z,95.30
2022-09-21T22:54:11.192Z,95.20
2022-09-21T22:56:39.223Z,95.10
2022-09-21T22:59:07.401Z,95.20
2022-09-21T23:01:37.449Z,95.10
2022-09-21T23:04:07.955Z,95.20
2022-09-21T23:06:37.611Z,95.10
2022-09-21T23:09:07.687Z,95.10
2022-09-21T23:11:38.986Z,95.10
2022-09-21T23:14:07.031Z,95.20
2022-09-21T23:16:35.422Z,95.10
2022-09-21T23:19:03.559Z,95.20
2022-09-21T23:21:32.020Z,95.20
2022-09-21T23:24:02.707Z,95.20
2022-09-21T23:26:33.907Z,95.10
2022-09-21T23:29:05.935Z,95.00
2022-09-21T23:31:34.328Z,95.00
2022-09-21T23:34:07.625Z,95.00
2022-09-21T23:36:37.379Z,95.00
2022-09-21T23:39:07.809Z,95.00
2022-09-21T23:41:37.278Z,95.00
2022-09-21T23:44:06.793Z,95.00
2022-09-21T23:46:36.371Z,95.10
2022-09-21T23:49:05.195Z,95.10
2022-09-21T23:51:33.675Z,95.10
2022-09-21T23:54:02.193Z,95.00
2022-09-21T23:56:31.677Z,94.80
2022-09-21T23:59:00.254Z,94.90
